気象予報士の航空気象 成田空港の気温差は16度

*All archives   *Admin

2009.11.04 (Wed)

成田空港の気温差は16度

成田空港の4日0030のMETAR

RJAA 031530Z VRB02KT CAVOK 01/M00 Q1031 NOSIG RMK A3045


冷え込んで、なんと気温1度です。


所によっては氷ができたかもしれません。


午後2時半には南よりの風で気温が17度まで上昇。

RJAA 040530Z 19009KT 9999 FEW035 BKN/// 17/09 Q1027 NOSIG RMK 2CU035 A3035


冬将軍は撤退。


明日から、また暖かい日が続くようです。。。



ブログランキングに参加しています。
にほんブログ村 環境ブログ 天気・気象学へ
にほんブログ村
応援クリックをおねがします。


以下、アフィリエイトサイトです。





スポンサーサイト
20:08  |  気象・天気  |  TB(0)  |  CM(0)  |  EDIT  |  Top↑

コメントを投稿する


 管理者だけに表示  (非公開コメント投稿可能)

▲PageTop

この記事のトラックバックURL

→http://weathereucalyptus.blog115.fc2.com/tb.php/290-9fc00414
この記事にトラックバックする(FC2ブログユーザー)

この記事へのトラックバック

▲PageTop

 | BLOGTOP |